sensor_id;sensor_type;location;lat;lon;timestamp;P1;durP1;ratioP1;P2;durP2;ratioP2
79027;SDS011;68427;48.476;19.102;2023-05-07T00:01:03;4.80;;;3.05;;
79027;SDS011;68427;48.476;19.102;2023-05-07T00:03:31;6.65;;;2.63;;
79027;SDS011;68427;48.476;19.102;2023-05-07T00:05:58;5.97;;;2.53;;
79027;SDS011;68427;48.476;19.102;2023-05-07T00:08:24;6.40;;;2.53;;
79027;SDS011;68427;48.476;19.102;2023-05-07T00:10:50;9.40;;;2.08;;
79027;SDS011;68427;48.476;19.102;2023-05-07T00:13:15;6.22;;;4.85;;
79027;SDS011;68427;48.476;19.102;2023-05-07T00:15:41;5.28;;;2.85;;
79027;SDS011;68427;48.476;19.102;2023-05-07T00:18:07;7.68;;;2.85;;
79027;SDS011;68427;48.476;19.102;2023-05-07T00:20:32;8.32;;;4.93;;
79027;SDS011;68427;48.476;19.102;2023-05-07T00:22:59;4.10;;;2.67;;
79027;SDS011;68427;48.476;19.102;2023-05-07T00:25:25;4.32;;;3.25;;
79027;SDS011;68427;48.476;19.102;2023-05-07T00:27:51;7.38;;;6.65;;
79027;SDS011;68427;48.476;19.102;2023-05-07T00:30:16;6.93;;;5.05;;
79027;SDS011;68427;48.476;19.102;2023-05-07T00:32:42;6.35;;;2.60;;
79027;SDS011;68427;48.476;19.102;2023-05-07T00:35:10;7.05;;;4.88;;
79027;SDS011;68427;48.476;19.102;2023-05-07T00:37:36;2.83;;;1.75;;
79027;SDS011;68427;48.476;19.102;2023-05-07T00:40:04;2.92;;;1.63;;
79027;SDS011;68427;48.476;19.102;2023-05-07T00:42:32;5.25;;;4.57;;
79027;SDS011;68427;48.476;19.102;2023-05-07T00:44:58;5.05;;;1.63;;
79027;SDS011;68427;48.476;19.102;2023-05-07T00:47:23;2.25;;;1.02;;
79027;SDS011;68427;48.476;19.102;2023-05-07T00:49:50;4.60;;;4.20;;
79027;SDS011;68427;48.476;19.102;2023-05-07T00:52:17;6.22;;;3.15;;
79027;SDS011;68427;48.476;19.102;2023-05-07T00:54:44;4.28;;;1.83;;
79027;SDS011;68427;48.476;19.102;2023-05-07T00:57:12;5.82;;;2.67;;
79027;SDS011;68427;48.476;19.102;2023-05-07T00:59:37;6.18;;;5.28;;
79027;SDS011;68427;48.476;19.102;2023-05-07T01:02:04;8.75;;;5.57;;
79027;SDS011;68427;48.476;19.102;2023-05-07T01:04:30;5.93;;;5.10;;
79027;SDS011;68427;48.476;19.102;2023-05-07T01:06:56;9.55;;;5.35;;
79027;SDS011;68427;48.476;19.102;2023-05-07T01:09:23;5.13;;;4.63;;
79027;SDS011;68427;48.476;19.102;2023-05-07T01:11:50;6.65;;;6.15;;
79027;SDS011;68427;48.476;19.102;2023-05-07T01:14:18;3.22;;;1.90;;
79027;SDS011;68427;48.476;19.102;2023-05-07T01:16:45;6.13;;;5.50;;
79027;SDS011;68427;48.476;19.102;2023-05-07T01:19:11;5.43;;;4.70;;
79027;SDS011;68427;48.476;19.102;2023-05-07T01:21:39;4.97;;;4.47;;
79027;SDS011;68427;48.476;19.102;2023-05-07T01:24:12;5.78;;;3.20;;
79027;SDS011;68427;48.476;19.102;2023-05-07T01:26:39;5.93;;;5.50;;
79027;SDS011;68427;48.476;19.102;2023-05-07T01:29:05;4.25;;;2.33;;
79027;SDS011;68427;48.476;19.102;2023-05-07T01:31:30;4.93;;;4.43;;
79027;SDS011;68427;48.476;19.102;2023-05-07T01:33:57;4.40;;;3.97;;
79027;SDS011;68427;48.476;19.102;2023-05-07T01:36:26;5.53;;;1.73;;
79027;SDS011;68427;48.476;19.102;2023-05-07T01:38:55;3.60;;;2.15;;
79027;SDS011;68427;48.476;19.102;2023-05-07T01:43:50;3.25;;;1.75;;
79027;SDS011;68427;48.476;19.102;2023-05-07T01:46:17;4.85;;;4.45;;
79027;SDS011;68427;48.476;19.102;2023-05-07T01:48:43;5.00;;;4.60;;
79027;SDS011;68427;48.476;19.102;2023-05-07T01:51:11;7.40;;;4.80;;
79027;SDS011;68427;48.476;19.102;2023-05-07T01:53:37;4.32;;;4.00;;
79027;SDS011;68427;48.476;19.102;2023-05-07T01:56:03;2.45;;;1.88;;
79027;SDS011;68427;48.476;19.102;2023-05-07T01:58:31;5.85;;;5.28;;
79027;SDS011;68427;48.476;19.102;2023-05-07T02:00:57;6.95;;;3.75;;
79027;SDS011;68427;48.476;19.102;2023-05-07T02:03:23;3.00;;;1.88;;
79027;SDS011;68427;48.476;19.102;2023-05-07T02:05:48;4.15;;;3.85;;
79027;SDS011;68427;48.476;19.102;2023-05-07T02:08:14;4.28;;;2.38;;
79027;SDS011;68427;48.476;19.102;2023-05-07T02:10:40;4.97;;;1.67;;
79027;SDS011;68427;48.476;19.102;2023-05-07T02:13:06;5.28;;;1.88;;
79027;SDS011;68427;48.476;19.102;2023-05-07T02:15:33;4.13;;;3.70;;
79027;SDS011;68427;48.476;19.102;2023-05-07T02:17:59;5.25;;;4.75;;
79027;SDS011;68427;48.476;19.102;2023-05-07T02:20:27;6.05;;;5.18;;
79027;SDS011;68427;48.476;19.102;2023-05-07T02:22:53;3.15;;;1.98;;
79027;SDS011;68427;48.476;19.102;2023-05-07T02:25:19;2.60;;;1.48;;
79027;SDS011;68427;48.476;19.102;2023-05-07T02:27:45;3.22;;;1.77;;
79027;SDS011;68427;48.476;19.102;2023-05-07T02:30:11;5.13;;;3.55;;
79027;SDS011;68427;48.476;19.102;2023-05-07T02:32:38;3.65;;;1.77;;
79027;SDS011;68427;48.476;19.102;2023-05-07T02:35:04;2.65;;;1.52;;
79027;SDS011;68427;48.476;19.102;2023-05-07T02:37:30;3.33;;;1.88;;
79027;SDS011;68427;48.476;19.102;2023-05-07T02:39:56;5.57;;;3.75;;
79027;SDS011;68427;48.476;19.102;2023-05-07T02:42:21;4.22;;;1.38;;
79027;SDS011;68427;48.476;19.102;2023-05-07T02:44:47;5.40;;;3.80;;
79027;SDS011;68427;48.476;19.102;2023-05-07T02:47:13;10.55;;;1.77;;
79027;SDS011;68427;48.476;19.102;2023-05-07T02:49:41;2.33;;;1.58;;
79027;SDS011;68427;48.476;19.102;2023-05-07T02:52:07;5.55;;;5.15;;
79027;SDS011;68427;48.476;19.102;2023-05-07T02:54:33;5.05;;;1.35;;
79027;SDS011;68427;48.476;19.102;2023-05-07T02:56:59;3.42;;;1.58;;
79027;SDS011;68427;48.476;19.102;2023-05-07T02:59:26;6.70;;;3.72;;
79027;SDS011;68427;48.476;19.102;2023-05-07T03:01:51;3.60;;;1.05;;
79027;SDS011;68427;48.476;19.102;2023-05-07T03:04:17;3.65;;;1.90;;
79027;SDS011;68427;48.476;19.102;2023-05-07T03:06:44;4.90;;;3.97;;
79027;SDS011;68427;48.476;19.102;2023-05-07T03:09:10;5.25;;;1.80;;
79027;SDS011;68427;48.476;19.102;2023-05-07T03:11:36;6.13;;;1.73;;
79027;SDS011;68427;48.476;19.102;2023-05-07T03:14:01;3.15;;;1.65;;
79027;SDS011;68427;48.476;19.102;2023-05-07T03:16:27;4.65;;;2.20;;
79027;SDS011;68427;48.476;19.102;2023-05-07T03:18:53;5.25;;;4.70;;
79027;SDS011;68427;48.476;19.102;2023-05-07T03:21:19;3.15;;;1.63;;
79027;SDS011;68427;48.476;19.102;2023-05-07T03:23:46;5.28;;;4.78;;
79027;SDS011;68427;48.476;19.102;2023-05-07T03:26:11;5.45;;;1.88;;
79027;SDS011;68427;48.476;19.102;2023-05-07T03:28:37;4.47;;;2.00;;
79027;SDS011;68427;48.476;19.102;2023-05-07T03:31:03;9.20;;;2.35;;
79027;SDS011;68427;48.476;19.102;2023-05-07T03:33:29;6.95;;;5.88;;
79027;SDS011;68427;48.476;19.102;2023-05-07T03:35:54;5.95;;;4.50;;
79027;SDS011;68427;48.476;19.102;2023-05-07T03:38:20;2.63;;;1.55;;
79027;SDS011;68427;48.476;19.102;2023-05-07T03:40:47;8.77;;;4.78;;
79027;SDS011;68427;48.476;19.102;2023-05-07T03:43:13;4.95;;;4.30;;
79027;SDS011;68427;48.476;19.102;2023-05-07T03:45:38;5.68;;;4.25;;
79027;SDS011;68427;48.476;19.102;2023-05-07T03:48:04;6.45;;;5.40;;
79027;SDS011;68427;48.476;19.102;2023-05-07T03:50:30;5.15;;;2.03;;
79027;SDS011;68427;48.476;19.102;2023-05-07T03:52:55;13.02;;;6.18;;
79027;SDS011;68427;48.476;19.102;2023-05-07T03:55:21;6.13;;;5.70;;
79027;SDS011;68427;48.476;19.102;2023-05-07T03:57:48;7.60;;;6.90;;
79027;SDS011;68427;48.476;19.102;2023-05-07T04:00:14;9.50;;;6.88;;
79027;SDS011;68427;48.476;19.102;2023-05-07T04:02:40;9.00;;;2.85;;
79027;SDS011;68427;48.476;19.102;2023-05-07T04:05:05;10.93;;;6.35;;
79027;SDS011;68427;48.476;19.102;2023-05-07T04:07:31;9.82;;;6.53;;
79027;SDS011;68427;48.476;19.102;2023-05-07T04:09:57;14.82;;;3.55;;
79027;SDS011;68427;48.476;19.102;2023-05-07T04:12:23;9.32;;;7.80;;
79027;SDS011;68427;48.476;19.102;2023-05-07T04:14:50;9.90;;;5.95;;
79027;SDS011;68427;48.476;19.102;2023-05-07T04:17:15;10.90;;;5.95;;
79027;SDS011;68427;48.476;19.102;2023-05-07T04:19:41;15.52;;;6.30;;
79027;SDS011;68427;48.476;19.102;2023-05-07T04:22:10;10.93;;;4.47;;
79027;SDS011;68427;48.476;19.102;2023-05-07T04:24:35;11.90;;;6.95;;
79027;SDS011;68427;48.476;19.102;2023-05-07T04:27:01;13.95;;;8.38;;
79027;SDS011;68427;48.476;19.102;2023-05-07T04:29:27;9.07;;;6.65;;
79027;SDS011;68427;48.476;19.102;2023-05-07T04:31:55;11.88;;;5.35;;
79027;SDS011;68427;48.476;19.102;2023-05-07T04:34:21;8.23;;;3.20;;
79027;SDS011;68427;48.476;19.102;2023-05-07T04:36:47;17.60;;;4.43;;
79027;SDS011;68427;48.476;19.102;2023-05-07T04:39:13;14.73;;;7.65;;
79027;SDS011;68427;48.476;19.102;2023-05-07T04:41:38;8.20;;;3.70;;
79027;SDS011;68427;48.476;19.102;2023-05-07T04:44:04;14.90;;;8.20;;
79027;SDS011;68427;48.476;19.102;2023-05-07T04:46:31;10.95;;;4.90;;
79027;SDS011;68427;48.476;19.102;2023-05-07T04:48:58;9.73;;;4.72;;
79027;SDS011;68427;48.476;19.102;2023-05-07T04:51:23;11.40;;;7.50;;
79027;SDS011;68427;48.476;19.102;2023-05-07T04:53:49;12.30;;;4.82;;
79027;SDS011;68427;48.476;19.102;2023-05-07T04:56:15;12.95;;;4.15;;
79027;SDS011;68427;48.476;19.102;2023-05-07T04:58:41;14.65;;;7.95;;
79027;SDS011;68427;48.476;19.102;2023-05-07T05:01:07;10.85;;;4.32;;
79027;SDS011;68427;48.476;19.102;2023-05-07T05:03:32;10.43;;;6.60;;
79027;SDS011;68427;48.476;19.102;2023-05-07T05:05:59;14.07;;;12.68;;
79027;SDS011;68427;48.476;19.102;2023-05-07T05:08:25;11.70;;;7.90;;
79027;SDS011;68427;48.476;19.102;2023-05-07T05:10:51;12.85;;;8.63;;
79027;SDS011;68427;48.476;19.102;2023-05-07T05:13:17;9.35;;;4.63;;
79027;SDS011;68427;48.476;19.102;2023-05-07T05:15:43;11.32;;;7.97;;
79027;SDS011;68427;48.476;19.102;2023-05-07T05:18:08;10.70;;;5.68;;
79027;SDS011;68427;48.476;19.102;2023-05-07T05:20:34;10.55;;;7.75;;
79027;SDS011;68427;48.476;19.102;2023-05-07T05:23:01;9.88;;;5.38;;
79027;SDS011;68427;48.476;19.102;2023-05-07T05:25:27;9.25;;;4.78;;
79027;SDS011;68427;48.476;19.102;2023-05-07T05:27:53;10.00;;;7.90;;
79027;SDS011;68427;48.476;19.102;2023-05-07T05:30:19;8.70;;;4.88;;
79027;SDS011;68427;48.476;19.102;2023-05-07T05:32:45;9.80;;;4.78;;
79027;SDS011;68427;48.476;19.102;2023-05-07T05:35:11;10.40;;;7.82;;
79027;SDS011;68427;48.476;19.102;2023-05-07T05:37:36;9.05;;;7.60;;
79027;SDS011;68427;48.476;19.102;2023-05-07T05:40:04;8.10;;;4.13;;
79027;SDS011;68427;48.476;19.102;2023-05-07T05:42:30;8.05;;;3.92;;
79027;SDS011;68427;48.476;19.102;2023-05-07T05:44:56;8.60;;;7.05;;
79027;SDS011;68427;48.476;19.102;2023-05-07T05:47:22;9.30;;;4.60;;
79027;SDS011;68427;48.476;19.102;2023-05-07T05:49:48;8.93;;;4.43;;
79027;SDS011;68427;48.476;19.102;2023-05-07T05:52:14;9.40;;;8.02;;
79027;SDS011;68427;48.476;19.102;2023-05-07T05:54:39;9.70;;;5.07;;
79027;SDS011;68427;48.476;19.102;2023-05-07T05:57:06;8.32;;;6.72;;
79027;SDS011;68427;48.476;19.102;2023-05-07T05:59:32;7.45;;;5.95;;
79027;SDS011;68427;48.476;19.102;2023-05-07T06:01:58;8.18;;;4.70;;
79027;SDS011;68427;48.476;19.102;2023-05-07T06:04:23;9.05;;;5.03;;
79027;SDS011;68427;48.476;19.102;2023-05-07T06:06:49;8.48;;;4.53;;
79027;SDS011;68427;48.476;19.102;2023-05-07T06:09:15;10.38;;;7.03;;
79027;SDS011;68427;48.476;19.102;2023-05-07T06:11:41;11.20;;;10.20;;
79027;SDS011;68427;48.476;19.102;2023-05-07T06:14:08;8.00;;;7.15;;
79027;SDS011;68427;48.476;19.102;2023-05-07T06:16:33;10.43;;;5.15;;
79027;SDS011;68427;48.476;19.102;2023-05-07T06:18:59;10.07;;;6.13;;
79027;SDS011;68427;48.476;19.102;2023-05-07T06:21:25;8.48;;;7.20;;
79027;SDS011;68427;48.476;19.102;2023-05-07T06:23:50;9.00;;;7.03;;
79027;SDS011;68427;48.476;19.102;2023-05-07T06:26:17;8.18;;;7.15;;
79027;SDS011;68427;48.476;19.102;2023-05-07T06:28:43;8.23;;;4.50;;
79027;SDS011;68427;48.476;19.102;2023-05-07T06:31:13;8.55;;;7.40;;
79027;SDS011;68427;48.476;19.102;2023-05-07T06:33:40;10.05;;;7.53;;
79027;SDS011;68427;48.476;19.102;2023-05-07T06:36:06;9.70;;;6.32;;
79027;SDS011;68427;48.476;19.102;2023-05-07T06:38:32;8.75;;;6.18;;
79027;SDS011;68427;48.476;19.102;2023-05-07T06:40:57;9.35;;;7.05;;
79027;SDS011;68427;48.476;19.102;2023-05-07T06:43:23;8.27;;;6.63;;
79027;SDS011;68427;48.476;19.102;2023-05-07T06:45:49;8.27;;;6.10;;
79027;SDS011;68427;48.476;19.102;2023-05-07T06:48:16;8.75;;;6.85;;
79027;SDS011;68427;48.476;19.102;2023-05-07T06:50:42;9.00;;;6.10;;
79027;SDS011;68427;48.476;19.102;2023-05-07T06:53:07;9.15;;;6.57;;
79027;SDS011;68427;48.476;19.102;2023-05-07T06:55:33;8.63;;;5.72;;
79027;SDS011;68427;48.476;19.102;2023-05-07T06:57:59;8.65;;;7.85;;
79027;SDS011;68427;48.476;19.102;2023-05-07T07:00:26;7.55;;;6.85;;
79027;SDS011;68427;48.476;19.102;2023-05-07T07:02:51;7.05;;;6.32;;
79027;SDS011;68427;48.476;19.102;2023-05-07T07:05:19;7.28;;;6.57;;
79027;SDS011;68427;48.476;19.102;2023-05-07T07:07:44;7.03;;;6.30;;
79027;SDS011;68427;48.476;19.102;2023-05-07T07:10:17;6.55;;;5.80;;
79027;SDS011;68427;48.476;19.102;2023-05-07T07:12:43;7.00;;;6.10;;
79027;SDS011;68427;48.476;19.102;2023-05-07T07:15:09;7.05;;;6.28;;
79027;SDS011;68427;48.476;19.102;2023-05-07T07:17:35;7.40;;;6.57;;
79027;SDS011;68427;48.476;19.102;2023-05-07T07:20:01;5.50;;;3.95;;
79027;SDS011;68427;48.476;19.102;2023-05-07T07:22:29;7.32;;;6.57;;
79027;SDS011;68427;48.476;19.102;2023-05-07T07:24:54;6.70;;;6.10;;
79027;SDS011;68427;48.476;19.102;2023-05-07T07:27:20;7.80;;;7.20;;
79027;SDS011;68427;48.476;19.102;2023-05-07T07:29:46;4.70;;;3.05;;
79027;SDS011;68427;48.476;19.102;2023-05-07T07:32:11;7.95;;;7.15;;
79027;SDS011;68427;48.476;19.102;2023-05-07T07:34:37;5.80;;;5.30;;
79027;SDS011;68427;48.476;19.102;2023-05-07T07:37:03;7.80;;;7.10;;
79027;SDS011;68427;48.476;19.102;2023-05-07T07:39:32;5.90;;;4.93;;
79027;SDS011;68427;48.476;19.102;2023-05-07T07:41:58;5.88;;;5.32;;
79027;SDS011;68427;48.476;19.102;2023-05-07T07:44:24;6.57;;;5.97;;
79027;SDS011;68427;48.476;19.102;2023-05-07T07:46:50;6.22;;;5.70;;
79027;SDS011;68427;48.476;19.102;2023-05-07T07:49:16;6.90;;;5.85;;
79027;SDS011;68427;48.476;19.102;2023-05-07T07:51:41;4.07;;;2.17;;
79027;SDS011;68427;48.476;19.102;2023-05-07T07:54:07;5.93;;;5.40;;
79027;SDS011;68427;48.476;19.102;2023-05-07T07:56:34;3.35;;;1.98;;
79027;SDS011;68427;48.476;19.102;2023-05-07T08:01:25;6.50;;;5.90;;
79027;SDS011;68427;48.476;19.102;2023-05-07T08:03:51;5.85;;;5.35;;
79027;SDS011;68427;48.476;19.102;2023-05-07T08:06:17;5.03;;;2.65;;
79027;SDS011;68427;48.476;19.102;2023-05-07T08:08:43;4.85;;;2.78;;
79027;SDS011;68427;48.476;19.102;2023-05-07T08:11:08;5.57;;;4.43;;
79027;SDS011;68427;48.476;19.102;2023-05-07T08:13:36;3.67;;;2.72;;
79027;SDS011;68427;48.476;19.102;2023-05-07T08:16:03;4.47;;;3.70;;
79027;SDS011;68427;48.476;19.102;2023-05-07T08:18:29;3.65;;;2.67;;
79027;SDS011;68427;48.476;19.102;2023-05-07T08:20:55;4.13;;;2.38;;
79027;SDS011;68427;48.476;19.102;2023-05-07T08:23:20;4.43;;;2.13;;
79027;SDS011;68427;48.476;19.102;2023-05-07T08:25:46;4.70;;;1.83;;
79027;SDS011;68427;48.476;19.102;2023-05-07T08:28:12;4.35;;;2.05;;
79027;SDS011;68427;48.476;19.102;2023-05-07T08:30:39;2.80;;;1.83;;
79027;SDS011;68427;48.476;19.102;2023-05-07T08:35:30;3.17;;;1.80;;
79027;SDS011;68427;48.476;19.102;2023-05-07T08:37:55;4.40;;;1.85;;
79027;SDS011;68427;48.476;19.102;2023-05-07T08:40:22;3.50;;;1.45;;
79027;SDS011;68427;48.476;19.102;2023-05-07T08:42:51;3.15;;;1.98;;
79027;SDS011;68427;48.476;19.102;2023-05-07T08:45:18;3.13;;;1.70;;
79027;SDS011;68427;48.476;19.102;2023-05-07T08:47:47;2.22;;;1.20;;
79027;SDS011;68427;48.476;19.102;2023-05-07T08:50:16;3.25;;;2.05;;
79027;SDS011;68427;48.476;19.102;2023-05-07T08:52:43;3.15;;;1.67;;
79027;SDS011;68427;48.476;19.102;2023-05-07T08:55:09;5.53;;;1.65;;
79027;SDS011;68427;48.476;19.102;2023-05-07T08:57:35;4.38;;;1.90;;
79027;SDS011;68427;48.476;19.102;2023-05-07T09:00:01;4.07;;;3.45;;
79027;SDS011;68427;48.476;19.102;2023-05-07T09:02:26;2.97;;;1.23;;
79027;SDS011;68427;48.476;19.102;2023-05-07T09:04:53;2.78;;;1.45;;
79027;SDS011;68427;48.476;19.102;2023-05-07T09:07:20;4.57;;;1.45;;
79027;SDS011;68427;48.476;19.102;2023-05-07T09:09:46;3.13;;;1.73;;
79027;SDS011;68427;48.476;19.102;2023-05-07T09:12:12;2.97;;;1.33;;
79027;SDS011;68427;48.476;19.102;2023-05-07T09:14:38;3.00;;;0.95;;
79027;SDS011;68427;48.476;19.102;2023-05-07T09:17:04;3.13;;;1.42;;
79027;SDS011;68427;48.476;19.102;2023-05-07T09:19:30;2.13;;;1.00;;
79027;SDS011;68427;48.476;19.102;2023-05-07T09:22:00;2.53;;;1.40;;
79027;SDS011;68427;48.476;19.102;2023-05-07T09:24:26;2.08;;;0.90;;
79027;SDS011;68427;48.476;19.102;2023-05-07T09:26:53;2.58;;;0.85;;
79027;SDS011;68427;48.476;19.102;2023-05-07T09:31:46;2.75;;;1.23;;
79027;SDS011;68427;48.476;19.102;2023-05-07T09:34:11;4.03;;;1.38;;
79027;SDS011;68427;48.476;19.102;2023-05-07T09:36:37;2.75;;;1.25;;
79027;SDS011;68427;48.476;19.102;2023-05-07T09:39:04;3.20;;;0.95;;
79027;SDS011;68427;48.476;19.102;2023-05-07T09:41:30;2.10;;;0.90;;
79027;SDS011;68427;48.476;19.102;2023-05-07T09:43:57;4.05;;;0.95;;
79027;SDS011;68427;48.476;19.102;2023-05-07T09:46:25;3.13;;;0.68;;
79027;SDS011;68427;48.476;19.102;2023-05-07T09:48:53;1.65;;;0.80;;
79027;SDS011;68427;48.476;19.102;2023-05-07T09:51:24;2.78;;;1.30;;
79027;SDS011;68427;48.476;19.102;2023-05-07T09:53:54;2.42;;;0.90;;
79027;SDS011;68427;48.476;19.102;2023-05-07T09:56:23;2.35;;;0.90;;
79027;SDS011;68427;48.476;19.102;2023-05-07T09:58:50;3.28;;;1.08;;
79027;SDS011;68427;48.476;19.102;2023-05-07T10:01:17;3.50;;;0.98;;
79027;SDS011;68427;48.476;19.102;2023-05-07T10:03:47;1.60;;;0.73;;
79027;SDS011;68427;48.476;19.102;2023-05-07T10:06:15;2.33;;;1.20;;
79027;SDS011;68427;48.476;19.102;2023-05-07T10:08:42;1.45;;;0.40;;
79027;SDS011;68427;48.476;19.102;2023-05-07T10:11:08;1.55;;;0.70;;
79027;SDS011;68427;48.476;19.102;2023-05-07T10:13:36;2.38;;;0.85;;
79027;SDS011;68427;48.476;19.102;2023-05-07T10:16:03;2.10;;;1.00;;
79027;SDS011;68427;48.476;19.102;2023-05-07T10:18:30;3.35;;;1.02;;
79027;SDS011;68427;48.476;19.102;2023-05-07T10:20:59;2.80;;;0.80;;
79027;SDS011;68427;48.476;19.102;2023-05-07T10:23:29;2.40;;;0.88;;
79027;SDS011;68427;48.476;19.102;2023-05-07T10:25:57;2.20;;;1.00;;
79027;SDS011;68427;48.476;19.102;2023-05-07T10:28:24;4.03;;;0.80;;
79027;SDS011;68427;48.476;19.102;2023-05-07T10:30:56;6.22;;;0.60;;
79027;SDS011;68427;48.476;19.102;2023-05-07T10:33:30;2.35;;;0.93;;
79027;SDS011;68427;48.476;19.102;2023-05-07T10:35:58;2.28;;;0.68;;
79027;SDS011;68427;48.476;19.102;2023-05-07T10:38:26;2.25;;;0.95;;
79027;SDS011;68427;48.476;19.102;2023-05-07T10:40:53;3.17;;;1.48;;
79027;SDS011;68427;48.476;19.102;2023-05-07T10:43:19;2.50;;;1.10;;
79027;SDS011;68427;48.476;19.102;2023-05-07T10:45:49;3.78;;;0.80;;
79027;SDS011;68427;48.476;19.102;2023-05-07T10:51:36;4.85;;;1.95;;
79027;SDS011;68427;48.476;19.102;2023-05-07T10:56:52;3.15;;;1.90;;
79027;SDS011;68427;48.476;19.102;2023-05-07T10:59:30;2.38;;;0.88;;
79027;SDS011;68427;48.476;19.102;2023-05-07T11:01:59;2.40;;;0.88;;
79027;SDS011;68427;48.476;19.102;2023-05-07T11:04:28;2.33;;;0.82;;
79027;SDS011;68427;48.476;19.102;2023-05-07T11:09:57;2.13;;;0.93;;
79027;SDS011;68427;48.476;19.102;2023-05-07T11:18:10;3.90;;;2.65;;
79027;SDS011;68427;48.476;19.102;2023-05-07T11:20:53;2.92;;;1.30;;
79027;SDS011;68427;48.476;19.102;2023-05-07T11:26:23;4.57;;;3.42;;
79027;SDS011;68427;48.476;19.102;2023-05-07T11:28:50;2.60;;;0.80;;
79027;SDS011;68427;48.476;19.102;2023-05-07T11:31:20;3.05;;;0.80;;
79027;SDS011;68427;48.476;19.102;2023-05-07T11:33:49;1.65;;;1.23;;
79027;SDS011;68427;48.476;19.102;2023-05-07T11:36:15;2.50;;;1.20;;
79027;SDS011;68427;48.476;19.102;2023-05-07T11:38:41;2.60;;;0.98;;
79027;SDS011;68427;48.476;19.102;2023-05-07T11:41:06;2.35;;;1.67;;
79027;SDS011;68427;48.476;19.102;2023-05-07T11:43:33;2.20;;;1.13;;
79027;SDS011;68427;48.476;19.102;2023-05-07T11:46:08;2.30;;;1.00;;
79027;SDS011;68427;48.476;19.102;2023-05-07T11:48:34;3.10;;;2.90;;
79027;SDS011;68427;48.476;19.102;2023-05-07T11:51:02;1.92;;;1.60;;
79027;SDS011;68427;48.476;19.102;2023-05-07T11:53:34;2.22;;;0.88;;
79027;SDS011;68427;48.476;19.102;2023-05-07T11:56:05;2.15;;;0.93;;
79027;SDS011;68427;48.476;19.102;2023-05-07T11:58:32;2.92;;;2.58;;
79027;SDS011;68427;48.476;19.102;2023-05-07T12:00:57;2.10;;;0.77;;
79027;SDS011;68427;48.476;19.102;2023-05-07T12:03:23;2.80;;;2.60;;
79027;SDS011;68427;48.476;19.102;2023-05-07T12:05:49;3.30;;;3.00;;
79027;SDS011;68427;48.476;19.102;2023-05-07T12:08:16;1.65;;;0.57;;
79027;SDS011;68427;48.476;19.102;2023-05-07T12:10:43;1.58;;;0.73;;
79027;SDS011;68427;48.476;19.102;2023-05-07T12:13:15;1.50;;;0.40;;
79027;SDS011;68427;48.476;19.102;2023-05-07T12:15:41;1.50;;;1.13;;
79027;SDS011;68427;48.476;19.102;2023-05-07T12:18:07;3.30;;;2.70;;
79027;SDS011;68427;48.476;19.102;2023-05-07T12:20:33;3.13;;;2.45;;
79027;SDS011;68427;48.476;19.102;2023-05-07T12:23:00;3.85;;;3.55;;
79027;SDS011;68427;48.476;19.102;2023-05-07T12:25:27;2.97;;;2.67;;
79027;SDS011;68427;48.476;19.102;2023-05-07T12:27:55;2.28;;;1.35;;
79027;SDS011;68427;48.476;19.102;2023-05-07T12:30:23;3.20;;;2.90;;
79027;SDS011;68427;48.476;19.102;2023-05-07T12:32:52;1.92;;;0.85;;
79027;SDS011;68427;48.476;19.102;2023-05-07T12:35:25;2.33;;;0.73;;
79027;SDS011;68427;48.476;19.102;2023-05-07T12:37:54;3.78;;;1.17;;
79027;SDS011;68427;48.476;19.102;2023-05-07T12:40:20;2.30;;;0.93;;
79027;SDS011;68427;48.476;19.102;2023-05-07T12:42:47;2.90;;;1.55;;
79027;SDS011;68427;48.476;19.102;2023-05-07T12:45:18;2.92;;;2.65;;
79027;SDS011;68427;48.476;19.102;2023-05-07T12:47:44;3.15;;;0.77;;
79027;SDS011;68427;48.476;19.102;2023-05-07T12:50:10;3.80;;;0.88;;
79027;SDS011;68427;48.476;19.102;2023-05-07T12:52:37;2.20;;;0.77;;
79027;SDS011;68427;48.476;19.102;2023-05-07T12:55:06;3.47;;;1.25;;
79027;SDS011;68427;48.476;19.102;2023-05-07T12:57:37;2.00;;;0.80;;
79027;SDS011;68427;48.476;19.102;2023-05-07T13:00:06;3.13;;;0.93;;
79027;SDS011;68427;48.476;19.102;2023-05-07T13:02:33;3.42;;;3.10;;
79027;SDS011;68427;48.476;19.102;2023-05-07T13:05:00;3.85;;;2.70;;
79027;SDS011;68427;48.476;19.102;2023-05-07T13:07:26;2.65;;;1.25;;
79027;SDS011;68427;48.476;19.102;2023-05-07T13:09:52;1.92;;;0.70;;
79027;SDS011;68427;48.476;19.102;2023-05-07T13:12:17;3.25;;;2.85;;
79027;SDS011;68427;48.476;19.102;2023-05-07T13:14:43;3.20;;;2.90;;
79027;SDS011;68427;48.476;19.102;2023-05-07T13:17:10;2.85;;;2.25;;
79027;SDS011;68427;48.476;19.102;2023-05-07T13:22:02;3.70;;;2.67;;
79027;SDS011;68427;48.476;19.102;2023-05-07T13:24:28;2.17;;;1.13;;
79027;SDS011;68427;48.476;19.102;2023-05-07T13:26:53;5.22;;;4.93;;
79027;SDS011;68427;48.476;19.102;2023-05-07T13:29:19;3.55;;;3.22;;
79027;SDS011;68427;48.476;19.102;2023-05-07T13:31:47;2.88;;;2.58;;
79027;SDS011;68427;48.476;19.102;2023-05-07T13:34:14;2.80;;;2.45;;
79027;SDS011;68427;48.476;19.102;2023-05-07T13:36:40;3.65;;;3.35;;
79027;SDS011;68427;48.476;19.102;2023-05-07T13:39:07;4.35;;;3.95;;
79027;SDS011;68427;48.476;19.102;2023-05-07T13:41:32;3.60;;;3.30;;
79027;SDS011;68427;48.476;19.102;2023-05-07T13:43:58;3.63;;;2.78;;
79027;SDS011;68427;48.476;19.102;2023-05-07T13:46:24;3.25;;;2.95;;
79027;SDS011;68427;48.476;19.102;2023-05-07T13:48:49;4.70;;;3.70;;
79027;SDS011;68427;48.476;19.102;2023-05-07T13:51:17;3.45;;;3.15;;
79027;SDS011;68427;48.476;19.102;2023-05-07T13:53:43;5.00;;;4.50;;
79027;SDS011;68427;48.476;19.102;2023-05-07T13:56:09;3.10;;;1.50;;
79027;SDS011;68427;48.476;19.102;2023-05-07T13:58:34;3.22;;;2.55;;
79027;SDS011;68427;48.476;19.102;2023-05-07T14:01:01;4.50;;;4.10;;
79027;SDS011;68427;48.476;19.102;2023-05-07T14:03:27;4.90;;;3.65;;
79027;SDS011;68427;48.476;19.102;2023-05-07T14:05:52;3.72;;;3.42;;
79027;SDS011;68427;48.476;19.102;2023-05-07T14:08:19;3.22;;;2.92;;
79027;SDS011;68427;48.476;19.102;2023-05-07T14:10:45;5.55;;;5.15;;
79027;SDS011;68427;48.476;19.102;2023-05-07T14:13:11;3.97;;;3.58;;
79027;SDS011;68427;48.476;19.102;2023-05-07T14:15:37;5.65;;;5.22;;
79027;SDS011;68427;48.476;19.102;2023-05-07T14:18:03;4.05;;;3.72;;
79027;SDS011;68427;48.476;19.102;2023-05-07T14:20:28;3.88;;;3.40;;
79027;SDS011;68427;48.476;19.102;2023-05-07T14:22:56;2.90;;;1.58;;
79027;SDS011;68427;48.476;19.102;2023-05-07T14:25:23;4.10;;;3.67;;
79027;SDS011;68427;48.476;19.102;2023-05-07T14:27:48;4.40;;;4.10;;
79027;SDS011;68427;48.476;19.102;2023-05-07T14:30:14;3.38;;;3.08;;
79027;SDS011;68427;48.476;19.102;2023-05-07T14:32:41;3.50;;;3.20;;
79027;SDS011;68427;48.476;19.102;2023-05-07T14:35:07;4.07;;;3.35;;
79027;SDS011;68427;48.476;19.102;2023-05-07T14:37:33;2.95;;;2.67;;
79027;SDS011;68427;48.476;19.102;2023-05-07T14:39:59;4.15;;;3.40;;
79027;SDS011;68427;48.476;19.102;2023-05-07T14:42:26;5.07;;;4.68;;
79027;SDS011;68427;48.476;19.102;2023-05-07T14:44:52;3.20;;;1.95;;
79027;SDS011;68427;48.476;19.102;2023-05-07T14:47:18;6.03;;;5.43;;
79027;SDS011;68427;48.476;19.102;2023-05-07T14:49:43;4.72;;;4.32;;
79027;SDS011;68427;48.476;19.102;2023-05-07T14:52:09;4.28;;;3.88;;
79027;SDS011;68427;48.476;19.102;2023-05-07T14:54:35;5.38;;;4.88;;
79027;SDS011;68427;48.476;19.102;2023-05-07T14:57:01;4.88;;;4.47;;
79027;SDS011;68427;48.476;19.102;2023-05-07T14:59:29;5.65;;;4.20;;